Time,TemperatureF,DewpointF,PressureIn,WindDirection,WindDirectionDegrees,WindSpeedMPH,WindSpeedGustMPH,Humidity,HourlyPrecipIn,Conditions,Clouds,dailyrainin,SoftwareType,DateUTC
2013-04-27 00:01:00,45.3,36.5,30.36,NW,316,0.0,0.0,71,0.00,,---,0.00,VWS V14.01,2013-04-27 07:01:00,
2013-04-27 00:06:00,45.3,36.5,30.53,NW,316,0.0,0.0,71,0.00,,---,0.00,VWS V14.01,2013-04-27 07:06:00,
2013-04-27 00:11:00,44.6,35.1,30.53,NW,316,0.0,0.0,69,0.00,,---,0.00,VWS V14.01,2013-04-27 07:11:00,
2013-04-27 00:16:00,44.6,35.1,30.83,NW,316,0.0,0.0,69,0.00,,---,0.00,VWS V14.01,2013-04-27 07:16:00,
2013-04-27 00:21:00,44.2,35.1,30.83,NW,316,0.0,0.0,70,0.00,,---,0.00,VWS V14.01,2013-04-27 07:21:00,
2013-04-27 00:26:00,44.2,35.1,30.83,NW,316,0.0,0.0,70,0.00,,---,0.00,VWS V14.01,2013-04-27 07:26:00,
2013-04-27 00:31:00,43.9,35.1,30.92,NW,316,0.0,0.0,71,0.00,,---,0.00,VWS V14.01,2013-04-27 07:31:00,
2013-04-27 00:36:00,43.5,34.8,30.92,NW,316,0.0,0.0,71,0.00,,---,0.00,VWS V14.01,2013-04-27 07:36:00,
2013-04-27 00:41:00,43.5,34.8,30.92,NW,316,0.0,0.0,71,0.00,,---,0.00,VWS V14.01,2013-04-27 07:41:00,
2013-04-27 00:46:00,43.2,34.4,30.95,NW,316,0.0,0.0,71,0.00,,---,0.00,VWS V14.01,2013-04-27 07:46:00,
2013-04-27 00:51:00,43.2,34.4,30.95,NW,316,0.0,0.0,71,0.00,,---,0.00,VWS V14.01,2013-04-27 07:51:00,
2013-04-27 00:56:00,42.8,34.4,30.95,NW,316,0.0,0.0,72,0.00,,---,0.00,VWS V14.01,2013-04-27 07:56:00,
2013-04-27 01:01:00,42.8,34.4,31.01,NW,316,0.0,0.0,72,0.00,,---,0.00,VWS V14.01,2013-04-27 08:01:00,
2013-04-27 01:06:00,42.8,34.8,31.01,NW,316,0.0,0.0,73,0.00,,---,0.00,VWS V14.01,2013-04-27 08:06:00,
2013-04-27 01:11:00,42.6,34.6,31.01,NW,316,0.0,0.0,73,0.00,,---,0.00,VWS V14.01,2013-04-27 08:11:00,
2013-04-27 01:16:00,42.6,34.6,31.01,NW,316,0.0,0.0,73,0.00,,---,0.00,VWS V14.01,2013-04-27 08:16:00,
2013-04-27 01:21:00,42.6,34.6,31.01,NW,316,0.0,0.0,73,0.00,,---,0.00,VWS V14.01,2013-04-27 08:21:00,
2013-04-27 01:26:00,42.4,34.8,31.01,NW,316,0.0,0.0,74,0.00,,---,0.00,VWS V14.01,2013-04-27 08:26:00,
2013-04-27 01:31:00,42.3,34.2,31.01,NW,316,0.0,0.0,73,0.00,,---,0.00,VWS V14.01,2013-04-27 08:31:00,
2013-04-27 01:36:00,42.3,34.2,31.01,NW,316,0.0,0.0,73,0.00,,---,0.00,VWS V14.01,2013-04-27 08:36:00,
2013-04-27 01:41:00,42.1,34.4,31.01,NW,316,0.0,0.0,74,0.00,,---,0.00,VWS V14.01,2013-04-27 08:41:00,
2013-04-27 01:46:00,41.9,34.2,31.01,NW,316,0.0,0.0,74,0.00,,---,0.00,VWS V14.01,2013-04-27 08:46:00,
2013-04-27 01:51:00,41.9,34.2,31.01,NW,316,0.0,0.0,74,0.00,,---,0.00,VWS V14.01,2013-04-27 08:51:00,
2013-04-27 01:56:00,41.5,33.9,31.01,NW,316,0.0,0.0,74,0.00,,---,0.00,VWS V14.01,2013-04-27 08:56:00,
2013-04-27 02:01:00,41.4,34.0,31.01,NW,316,0.0,0.0,75,0.00,,---,0.00,VWS V14.01,2013-04-27 09:01:00,
2013-04-27 02:06:00,41.2,33.9,31.01,NW,316,0.0,0.0,75,0.00,,---,0.00,VWS V14.01,2013-04-27 09:06:00,
2013-04-27 02:11:00,41.2,33.9,31.01,NW,316,0.0,0.0,75,0.00,,---,0.00,VWS V14.01,2013-04-27 09:11:00,
2013-04-27 02:16:00,41.0,33.7,31.01,NW,316,0.0,0.0,75,0.00,,---,0.00,VWS V14.01,2013-04-27 09:16:00,
2013-04-27 02:21:00,40.8,33.8,31.01,NW,316,0.0,0.0,76,0.00,,---,0.00,VWS V14.01,2013-04-27 09:21:00,
2013-04-27 02:26:00,40.6,33.7,31.01,NW,316,0.0,0.0,76,0.00,,---,0.00,VWS V14.01,2013-04-27 09:26:00,
2013-04-27 02:31:00,40.6,33.7,31.01,NW,316,0.0,0.0,76,0.00,,---,0.00,VWS V14.01,2013-04-27 09:31:00,
2013-04-27 02:36:00,40.6,34.0,31.01,NW,316,0.0,0.0,77,0.00,,---,0.00,VWS V14.01,2013-04-27 09:36:00,
2013-04-27 02:41:00,40.8,34.2,31.01,NW,316,0.0,0.0,77,0.00,,---,0.00,VWS V14.01,2013-04-27 09:41:00,
2013-04-27 02:46:00,41.2,34.2,31.01,NW,316,0.0,0.0,76,0.00,,---,0.00,VWS V14.01,2013-04-27 09:46:00,
2013-04-27 02:51:00,41.4,34.7,31.01,NW,316,0.0,0.0,77,0.00,,---,0.00,VWS V14.01,2013-04-27 09:51:00,
2013-04-27 02:56:00,41.5,34.9,31.01,NW,316,0.0,0.0,77,0.00,,---,0.00,VWS V14.01,2013-04-27 09:56:00,
2013-04-27 03:01:00,41.5,34.9,31.01,NW,316,0.0,0.0,77,0.00,,---,0.00,VWS V14.01,2013-04-27 10:01:00,
2013-04-27 03:06:00,41.5,34.9,31.01,NW,316,0.0,0.0,77,0.00,,---,0.00,VWS V14.01,2013-04-27 10:06:00,
2013-04-27 03:11:00,41.2,34.5,31.01,NW,316,0.0,0.0,77,0.00,,---,0.00,VWS V14.01,2013-04-27 10:11:00,
2013-04-27 03:16:00,41.2,34.5,31.01,NW,316,0.0,0.0,77,0.00,,---,0.00,VWS V14.01,2013-04-27 10:16:00,
2013-04-27 03:21:00,40.8,34.5,31.01,NW,316,0.0,0.0,78,0.00,,---,0.00,VWS V14.01,2013-04-27 10:21:00,
2013-04-27 03:26:00,40.6,34.3,31.01,NW,316,0.0,0.0,78,0.00,,---,0.00,VWS V14.01,2013-04-27 10:26:00,
2013-04-27 03:31:00,40.6,34.3,31.01,NW,316,0.0,0.0,78,0.00,,---,0.00,VWS V14.01,2013-04-27 10:31:00,
2013-04-27 03:36:00,40.6,34.3,31.01,NW,316,0.0,0.0,78,0.00,,---,0.00,VWS V14.01,2013-04-27 10:36:00,
2013-04-27 03:41:00,40.6,34.7,31.01,NW,316,0.0,0.0,79,0.00,,---,0.00,VWS V14.01,2013-04-27 10:41:00,
2013-04-27 03:46:00,40.6,34.7,31.01,NW,316,0.0,0.0,79,0.00,,---,0.00,VWS V14.01,2013-04-27 10:46:00,
2013-04-27 03:51:00,40.6,34.7,31.01,NW,316,0.0,0.0,79,0.00,,---,0.00,VWS V14.01,2013-04-27 10:51:00,
2013-04-27 03:56:00,40.6,34.7,31.01,NW,316,0.0,0.0,79,0.00,,---,0.00,VWS V14.01,2013-04-27 10:56:00,
2013-04-27 04:01:00,40.6,34.7,31.01,NW,316,0.0,0.0,79,0.00,,---,0.00,VWS V14.01,2013-04-27 11:01:00,
2013-04-27 04:06:00,40.5,34.2,31.01,NW,316,0.0,0.0,78,0.00,,---,0.00,VWS V14.01,2013-04-27 11:06:00,
2013-04-27 04:11:00,40.5,34.5,31.01,NW,316,0.0,0.0,79,0.00,,---,0.00,VWS V14.01,2013-04-27 11:11:00,
2013-04-27 04:16:00,40.5,34.5,31.01,NW,316,0.0,0.0,79,0.00,,---,0.00,VWS V14.01,2013-04-27 11:16:00,
2013-04-27 04:21:00,40.3,34.3,31.01,NW,316,0.0,0.0,79,0.00,,---,0.00,VWS V14.01,2013-04-27 11:21:00,
2013-04-27 04:26:00,40.3,34.3,31.01,NW,316,0.0,0.0,79,0.00,,---,0.00,VWS V14.01,2013-04-27 11:26:00,
2013-04-27 04:31:00,40.3,34.6,31.01,NW,316,0.0,0.0,80,0.00,,---,0.00,VWS V14.01,2013-04-27 11:31:00,
2013-04-27 04:36:00,40.5,34.8,31.01,NW,316,0.0,0.0,80,0.00,,---,0.00,VWS V14.01,2013-04-27 11:36:00,
2013-04-27 04:41:00,40.3,34.6,31.01,NW,316,0.0,0.0,80,0.00,,---,0.00,VWS V14.01,2013-04-27 11:41:00,
2013-04-27 04:46:00,40.5,34.8,31.01,NW,316,0.0,0.0,80,0.00,,---,0.00,VWS V14.01,2013-04-27 11:46:00,
2013-04-27 04:51:00,40.6,35.3,31.01,NW,316,0.0,0.0,81,0.00,,---,0.00,VWS V14.01,2013-04-27 11:51:00,
2013-04-27 04:56:00,40.8,35.5,31.01,NW,316,0.0,0.0,81,0.00,,---,0.00,VWS V14.01,2013-04-27 11:56:00,
2013-04-27 05:01:00,41.0,35.3,31.01,NW,316,0.0,0.0,80,0.00,,---,0.00,VWS V14.01,2013-04-27 12:01:00,
2013-04-27 05:06:00,41.0,35.6,31.01,NW,316,0.0,0.0,81,0.00,,---,0.00,VWS V14.01,2013-04-27 12:06:00,
2013-04-27 05:11:00,41.0,35.6,31.01,NW,316,0.0,0.0,81,0.00,,---,0.00,VWS V14.01,2013-04-27 12:11:00,
2013-04-27 05:16:00,41.0,35.6,31.01,NW,316,0.0,0.0,81,0.00,,---,0.00,VWS V14.01,2013-04-27 12:16:00,
2013-04-27 05:21:00,41.0,35.6,31.01,NW,316,0.0,0.0,81,0.00,,---,0.00,VWS V14.01,2013-04-27 12:21:00,
2013-04-27 05:26:00,41.2,35.8,31.01,NW,316,0.0,0.0,81,0.00,,---,0.00,VWS V14.01,2013-04-27 12:26:00,
2013-04-27 05:31:00,41.2,35.8,31.01,NW,316,0.0,0.0,81,0.00,,---,0.00,VWS V14.01,2013-04-27 12:31:00,
2013-04-27 05:36:00,41.2,35.8,31.01,NW,316,0.0,0.0,81,0.00,,---,0.00,VWS V14.01,2013-04-27 12:36:00,
2013-04-27 05:41:00,41.4,36.0,31.01,NW,316,0.0,0.0,81,0.00,,---,0.00,VWS V14.01,2013-04-27 12:41:00,
2013-04-27 05:46:00,41.5,36.2,31.01,NW,316,0.0,0.0,81,0.00,,---,0.00,VWS V14.01,2013-04-27 12:46:00,
2013-04-27 05:51:00,41.5,36.5,31.01,NW,316,0.0,0.0,82,0.00,,---,0.00,VWS V14.01,2013-04-27 12:51:00,
2013-04-27 05:56:00,41.5,36.5,31.01,NW,316,0.0,0.0,82,0.00,,---,0.00,VWS V14.01,2013-04-27 12:56:00,
2013-04-27 06:01:00,41.5,36.5,31.01,NW,316,0.0,0.0,82,0.00,,---,0.00,VWS V14.01,2013-04-27 13:01:00,
2013-04-27 06:06:00,41.7,36.6,31.01,NW,316,0.0,0.0,82,0.00,,---,0.00,VWS V14.01,2013-04-27 13:06:00,
2013-04-27 06:11:00,41.7,36.6,31.01,NW,316,0.0,0.0,82,0.00,,---,0.00,VWS V14.01,2013-04-27 13:11:00,
2013-04-27 06:16:00,41.9,36.8,31.01,NW,316,0.0,0.0,82,0.00,,---,0.00,VWS V14.01,2013-04-27 13:16:00,
2013-04-27 06:21:00,42.1,37.0,31.01,NW,316,0.0,0.0,82,0.00,,---,0.00,VWS V14.01,2013-04-27 13:21:00,
2013-04-27 06:26:00,42.1,37.0,31.01,NW,316,0.0,0.0,82,0.00,,---,0.00,VWS V14.01,2013-04-27 13:26:00,
2013-04-27 06:31:00,42.3,37.2,31.01,NW,316,0.0,0.0,82,0.00,,---,0.00,VWS V14.01,2013-04-27 13:31:00,
2013-04-27 06:36:00,42.8,37.7,31.01,NW,316,0.0,0.0,82,0.00,,---,0.00,VWS V14.01,2013-04-27 13:36:00,
2013-04-27 06:41:00,44.1,39.2,31.01,NW,316,0.0,0.0,83,0.00,,---,0.00,VWS V14.01,2013-04-27 13:41:00,
2013-04-27 06:48:00,44.8,39.6,31.01,NW,316,0.0,0.0,82,0.00,,---,0.00,VWS V14.01,2013-04-27 13:48:00,
2013-04-27 06:53:00,44.8,39.3,31.01,NW,316,0.0,0.0,81,0.00,,---,0.00,VWS V14.01,2013-04-27 13:53:00,
2013-04-27 06:58:00,45.3,40.2,31.01,NW,316,0.0,0.0,82,0.00,,---,0.00,VWS V14.01,2013-04-27 13:58:00,
2013-04-27 07:03:00,45.5,40.0,31.01,NW,316,0.0,0.0,81,0.00,,---,0.00,VWS V14.01,2013-04-27 14:03:00,
2013-04-27 07:08:00,45.5,40.0,31.01,NW,316,0.0,0.0,81,0.00,,---,0.00,VWS V14.01,2013-04-27 14:08:00,
2013-04-27 07:13:00,46.2,41.0,31.01,NW,316,0.0,0.0,82,0.00,,---,0.00,VWS V14.01,2013-04-27 14:13:00,
2013-04-27 07:18:00,46.4,41.2,31.01,NW,316,0.0,0.0,82,0.00,,---,0.00,VWS V14.01,2013-04-27 14:18:00,
2013-04-27 07:23:00,46.9,41.7,31.01,NW,316,0.0,0.0,82,0.00,,---,0.00,VWS V14.01,2013-04-27 14:23:00,
2013-04-27 07:28:00,46.9,41.7,31.01,NW,316,0.0,0.0,82,0.00,,---,0.00,VWS V14.01,2013-04-27 14:28:00,
2013-04-27 07:33:00,47.7,42.1,31.01,NW,316,0.0,0.0,81,0.00,,---,0.00,VWS V14.01,2013-04-27 14:33:00,
2013-04-27 07:38:00,47.8,42.0,31.01,NW,316,0.0,0.0,80,0.00,,---,0.00,VWS V14.01,2013-04-27 14:38:00,
2013-04-27 07:43:00,48.0,42.2,31.01,NW,316,0.0,0.0,80,0.00,,---,0.00,VWS V14.01,2013-04-27 14:43:00,
2013-04-27 07:48:00,48.4,42.2,31.01,NW,316,0.0,0.0,79,0.00,,---,0.00,VWS V14.01,2013-04-27 14:48:00,
2013-04-27 07:53:00,48.4,42.2,31.01,NW,316,0.0,0.0,79,0.00,,---,0.00,VWS V14.01,2013-04-27 14:53:00,
2013-04-27 07:58:00,48.9,42.4,31.01,NW,316,0.0,0.0,78,0.00,,---,0.00,VWS V14.01,2013-04-27 14:58:00,
2013-04-27 08:03:00,49.1,42.2,31.01,NW,316,2.2,2.2,77,0.00,,---,0.00,VWS V14.01,2013-04-27 15:03:00,
2013-04-27 08:08:00,49.5,42.6,31.01,NW,316,0.0,2.2,77,0.00,,---,0.00,VWS V14.01,2013-04-27 15:08:00,
2013-04-27 08:13:00,49.8,42.6,31.01,NW,316,0.0,0.0,76,0.00,,---,0.00,VWS V14.01,2013-04-27 15:13:00,
2013-04-27 08:18:00,49.8,42.6,31.01,NW,316,0.0,0.0,76,0.00,,---,0.00,VWS V14.01,2013-04-27 15:18:00,
2013-04-27 08:23:00,51.1,43.1,31.01,NW,316,0.0,0.0,74,0.00,,---,0.00,VWS V14.01,2013-04-27 15:23:00,
2013-04-27 08:28:00,51.1,43.1,31.01,NW,316,0.0,0.0,74,0.00,,---,0.00,VWS V14.01,2013-04-27 15:28:00,
2013-04-27 08:33:00,52.5,40.3,31.01,NW,316,3.1,3.1,63,0.00,,---,0.00,VWS V14.01,2013-04-27 15:33:00,
2013-04-27 08:38:00,52.9,40.2,31.01,NW,316,0.0,0.0,62,0.00,,---,0.00,VWS V14.01,2013-04-27 15:38:00,
2013-04-27 08:43:00,52.9,40.2,31.01,NW,316,0.0,0.0,62,0.00,,---,0.00,VWS V14.01,2013-04-27 15:43:00,
2013-04-27 08:48:00,53.2,36.1,31.01,NW,316,0.0,0.0,52,0.00,,---,0.00,VWS V14.01,2013-04-27 15:48:00,
2013-04-27 08:53:00,53.4,34.2,31.01,NW,316,0.0,0.0,48,0.00,,---,0.00,VWS V14.01,2013-04-27 15:53:00,
2013-04-27 08:58:00,54.5,34.2,31.01,NW,316,4.5,4.5,46,0.00,,---,0.00,VWS V14.01,2013-04-27 15:58:00,
2013-04-27 09:03:00,54.9,35.0,31.01,NW,316,0.0,0.0,47,0.00,,---,0.00,VWS V14.01,2013-04-27 16:03:00,
2013-04-27 09:08:00,56.1,34.0,31.01,NW,316,0.0,0.0,43,0.00,,---,0.00,VWS V14.01,2013-04-27 16:08:00,
2013-04-27 09:13:00,56.5,32.5,31.01,NW,316,0.0,0.0,40,0.00,,---,0.00,VWS V14.01,2013-04-27 16:13:00,
2013-04-27 09:18:00,56.7,32.6,31.01,NW,316,0.0,0.0,40,0.00,,---,0.00,VWS V14.01,2013-04-27 16:18:00,
2013-04-27 09:23:00,57.2,32.5,31.01,NW,316,3.1,3.1,39,0.00,,---,0.00,VWS V14.01,2013-04-27 16:23:00,
2013-04-27 09:28:00,57.2,31.8,31.01,NW,316,6.7,6.7,38,0.00,,---,0.00,VWS V14.01,2013-04-27 16:28:00,
2013-04-27 09:33:00,57.6,33.4,31.01,NW,316,0.0,0.0,40,0.00,,---,0.00,VWS V14.01,2013-04-27 16:33:00,
2013-04-27 09:38:00,57.9,32.5,31.01,NW,316,2.7,2.7,38,0.00,,---,0.00,VWS V14.01,2013-04-27 16:38:00,
2013-04-27 09:43:00,58.1,32.7,31.01,NW,316,2.7,2.7,38,0.00,,---,0.00,VWS V14.01,2013-04-27 16:43:00,
2013-04-27 09:48:00,58.3,32.8,31.01,NW,316,4.0,4.0,38,0.00,,---,0.00,VWS V14.01,2013-04-27 16:48:00,
2013-04-27 09:53:00,58.6,33.1,31.01,NW,316,2.2,2.2,38,0.00,,---,0.00,VWS V14.01,2013-04-27 16:53:00,
2013-04-27 09:58:00,59.0,32.8,31.01,NW,316,0.0,0.0,37,0.00,,---,0.00,VWS V14.01,2013-04-27 16:58:00,
2013-04-27 10:03:00,59.0,32.8,31.01,NW,316,0.0,0.0,37,0.00,,---,0.00,VWS V14.01,2013-04-27 17:03:00,
2013-04-27 10:08:00,59.9,33.6,31.01,NW,316,0.0,0.0,37,0.00,,---,0.00,VWS V14.01,2013-04-27 17:08:00,
2013-04-27 10:13:00,60.1,33.1,31.01,NW,316,3.1,3.1,36,0.00,,---,0.00,VWS V14.01,2013-04-27 17:13:00,
2013-04-27 10:18:00,60.3,32.5,31.01,NW,316,3.1,3.1,35,0.00,,---,0.00,VWS V14.01,2013-04-27 17:18:00,
2013-04-27 10:23:00,60.4,32.7,31.01,NW,316,3.1,3.1,35,0.00,,---,0.00,VWS V14.01,2013-04-27 17:23:00,
2013-04-27 10:28:00,60.3,32.5,31.01,NW,316,4.0,4.0,35,0.00,,---,0.00,VWS V14.01,2013-04-27 17:28:00,
2013-04-27 10:33:00,60.6,32.8,31.01,NW,316,3.1,3.1,35,0.00,,---,0.00,VWS V14.01,2013-04-27 17:33:00,
2013-04-27 10:38:00,60.8,33.0,31.01,NW,316,4.9,4.9,35,0.00,,---,0.00,VWS V14.01,2013-04-27 17:38:00,
2013-04-27 10:43:00,61.3,33.5,31.01,NW,316,3.1,3.1,35,0.00,,---,0.00,VWS V14.01,2013-04-27 17:43:00,
2013-04-27 10:48:00,62.1,34.1,31.01,NW,316,5.8,5.8,35,0.00,,---,0.00,VWS V14.01,2013-04-27 17:48:00,
2013-04-27 10:53:00,62.1,33.4,31.01,NW,316,0.0,0.0,34,0.00,,---,0.00,VWS V14.01,2013-04-27 17:53:00,
2013-04-27 10:58:00,62.6,33.9,30.98,NW,316,3.1,3.1,34,0.00,,---,0.00,VWS V14.01,2013-04-27 17:58:00,
2013-04-27 11:03:00,62.6,33.9,30.98,NW,316,3.1,3.1,34,0.00,,---,0.00,VWS V14.01,2013-04-27 18:03:00,
2013-04-27 11:08:00,63.0,34.2,30.98,NW,316,5.4,5.4,34,0.00,,---,0.00,VWS V14.01,2013-04-27 18:08:00,
2013-04-27 11:13:00,63.0,33.4,30.98,NW,316,3.1,3.1,33,0.00,,---,0.00,VWS V14.01,2013-04-27 18:13:00,
2013-04-27 11:18:00,62.8,33.3,31.01,NW,316,3.6,3.6,33,0.00,,---,0.00,VWS V14.01,2013-04-27 18:18:00,
2013-04-27 11:23:00,62.4,33.7,31.01,NW,316,4.0,4.0,34,0.00,,---,0.00,VWS V14.01,2013-04-27 18:23:00,
2013-04-27 11:28:00,62.4,33.7,31.01,NW,316,2.2,2.2,34,0.00,,---,0.00,VWS V14.01,2013-04-27 18:28:00,
2013-04-27 11:33:00,62.2,33.5,31.01,NW,316,7.2,7.2,34,0.00,,---,0.00,VWS V14.01,2013-04-27 18:33:00,
2013-04-27 11:38:00,62.2,33.5,31.01,NW,316,5.4,5.4,34,0.00,,---,0.00,VWS V14.01,2013-04-27 18:38:00,
2013-04-27 11:43:00,62.1,33.4,31.01,NW,316,5.4,5.4,34,0.00,,---,0.00,VWS V14.01,2013-04-27 18:43:00,
2013-04-27 11:48:00,61.7,33.1,30.74,NW,316,3.6,3.6,34,0.00,,---,0.00,VWS V14.01,2013-04-27 18:48:00,
2013-04-27 11:53:00,61.7,33.1,30.74,NW,316,2.7,2.7,34,0.00,,---,0.00,VWS V14.01,2013-04-27 18:53:00,
2013-04-27 11:58:00,61.2,32.6,30.74,NW,316,4.0,4.0,34,0.00,,---,0.00,VWS V14.01,2013-04-27 18:58:00,
2013-04-27 12:03:00,61.0,32.4,30.83,NW,316,5.8,5.8,34,0.00,,---,0.00,VWS V14.01,2013-04-27 19:03:00,
2013-04-27 12:08:00,61.0,32.4,30.83,NW,316,5.8,5.8,34,0.00,,---,0.00,VWS V14.01,2013-04-27 19:08:00,
2013-04-27 12:13:00,61.0,32.4,30.86,NW,316,2.7,2.7,34,0.00,,---,0.00,VWS V14.01,2013-04-27 19:13:00,
2013-04-27 12:18:00,60.6,32.1,30.86,NW,316,3.1,3.1,34,0.00,,---,0.00,VWS V14.01,2013-04-27 19:18:00,
2013-04-27 12:23:00,60.4,32.0,30.86,NW,316,5.8,5.8,34,0.00,,---,0.00,VWS V14.01,2013-04-27 19:23:00,
2013-04-27 12:28:00,60.4,32.0,30.86,NW,316,2.7,3.6,34,0.00,,---,0.00,VWS V14.01,2013-04-27 19:28:00,
2013-04-27 12:33:00,60.4,32.0,31.01,NW,316,2.7,2.7,34,0.00,,---,0.00,VWS V14.01,2013-04-27 19:33:00,
2013-04-27 12:38:00,60.4,32.0,31.01,NW,316,3.6,3.6,34,0.00,,---,0.00,VWS V14.01,2013-04-27 19:38:00,
2013-04-27 12:43:00,60.3,31.8,31.01,NW,316,2.7,2.7,34,0.00,,---,0.00,VWS V14.01,2013-04-27 19:43:00,
2013-04-27 12:48:00,60.3,31.8,30.98,NW,316,4.9,4.9,34,0.00,,---,0.00,VWS V14.01,2013-04-27 19:48:00,
2013-04-27 12:53:00,59.7,31.3,30.98,NW,316,2.7,2.7,34,0.00,,---,0.00,VWS V14.01,2013-04-27 19:53:00,
2013-04-27 12:58:00,59.5,31.9,30.98,NW,316,0.0,0.0,35,0.00,,---,0.00,VWS V14.01,2013-04-27 19:58:00,
2013-04-27 13:03:00,59.5,31.9,30.98,NW,316,0.0,0.0,35,0.00,,---,0.00,VWS V14.01,2013-04-27 20:03:00,
2013-04-27 13:08:00,59.4,31.7,30.98,NW,316,5.4,6.7,35,0.00,,---,0.00,VWS V14.01,2013-04-27 20:08:00,
2013-04-27 13:13:00,59.4,31.7,30.98,NW,316,7.6,7.6,35,0.00,,---,0.00,VWS V14.01,2013-04-27 20:13:00,
2013-04-27 13:17:00,59.5,31.9,30.98,NW,316,4.0,4.0,35,0.00,,---,0.00,VWS V14.01,2013-04-27 20:17:00,
2013-04-27 13:22:00,59.7,32.0,31.01,NW,316,0.0,0.0,35,0.00,,---,0.00,VWS V14.01,2013-04-27 20:22:00,
2013-04-27 13:27:00,59.7,32.0,31.01,NW,316,3.6,3.6,35,0.00,,---,0.00,VWS V14.01,2013-04-27 20:27:00,
2013-04-27 13:32:00,59.4,31.7,31.01,NW,316,5.8,5.8,35,0.00,,---,0.00,VWS V14.01,2013-04-27 20:32:00,
2013-04-27 13:37:00,59.5,31.9,31.01,NW,316,4.0,4.0,35,0.00,,---,0.00,VWS V14.01,2013-04-27 20:37:00,
2013-04-27 13:42:00,59.7,32.0,31.01,NW,316,3.6,3.6,35,0.00,,---,0.00,VWS V14.01,2013-04-27 20:42:00,
2013-04-27 13:47:00,59.5,31.9,31.01,NW,316,0.0,2.7,35,0.00,,---,0.00,VWS V14.01,2013-04-27 20:47:00,
2013-04-27 13:52:00,59.4,31.7,31.01,NW,316,8.1,8.1,35,0.00,,---,0.00,VWS V14.01,2013-04-27 20:52:00,
2013-04-27 13:57:00,59.0,31.4,30.98,NW,316,0.0,0.0,35,0.00,,---,0.00,VWS V14.01,2013-04-27 20:57:00,
2013-04-27 14:02:00,58.8,31.2,30.98,NW,316,3.1,3.1,35,0.00,,---,0.00,VWS V14.01,2013-04-27 21:02:00,
2013-04-27 14:07:00,59.0,31.4,30.98,NW,316,6.7,6.7,35,0.00,,---,0.00,VWS V14.01,2013-04-27 21:07:00,
2013-04-27 14:12:00,59.0,31.4,31.01,NW,316,3.1,3.1,35,0.00,,---,0.00,VWS V14.01,2013-04-27 21:12:00,
2013-04-27 14:17:00,58.8,32.0,31.01,NW,316,2.7,2.7,36,0.00,,---,0.00,VWS V14.01,2013-04-27 21:17:00,
2013-04-27 14:22:00,58.6,31.8,31.01,NW,316,3.6,3.6,36,0.00,,---,0.00,VWS V14.01,2013-04-27 21:22:00,
2013-04-27 14:27:00,58.5,31.6,31.01,NW,316,2.7,2.7,36,0.00,,---,0.00,VWS V14.01,2013-04-27 21:27:00,
2013-04-27 14:32:00,58.3,31.5,31.01,NW,316,3.6,3.6,36,0.00,,---,0.00,VWS V14.01,2013-04-27 21:32:00,
2013-04-27 14:37:00,58.1,32.0,31.01,NW,316,0.0,0.0,37,0.00,,---,0.00,VWS V14.01,2013-04-27 21:37:00,
2013-04-27 14:42:00,57.7,32.3,31.01,NW,316,0.0,0.0,38,0.00,,---,0.00,VWS V14.01,2013-04-27 21:42:00,
2013-04-27 14:47:00,57.2,33.1,31.01,NW,316,5.8,5.8,40,0.00,,---,0.00,VWS V14.01,2013-04-27 21:47:00,
2013-04-27 14:52:00,56.8,36.3,31.01,NW,316,0.0,0.0,46,0.00,,---,0.00,VWS V14.01,2013-04-27 21:52:00,
2013-04-27 14:57:00,56.5,37.0,31.01,NW,316,0.0,0.0,48,0.00,,---,0.00,VWS V14.01,2013-04-27 21:57:00,
2013-04-27 15:02:00,56.3,37.4,31.01,NW,316,0.0,0.0,49,0.00,,---,0.00,VWS V14.01,2013-04-27 22:02:00,
2013-04-27 15:07:00,55.9,38.1,31.01,NW,316,0.0,0.0,51,0.00,,---,0.00,VWS V14.01,2013-04-27 22:07:00,
2013-04-27 15:12:00,55.8,39.4,31.01,NW,316,0.0,0.0,54,0.00,,---,0.00,VWS V14.01,2013-04-27 22:12:00,
2013-04-27 15:17:00,55.0,38.2,31.01,NW,316,0.0,0.0,53,0.00,,---,0.00,VWS V14.01,2013-04-27 22:17:00,
2013-04-27 15:22:00,54.7,40.7,31.01,NW,316,2.2,2.2,59,0.00,,---,0.00,VWS V14.01,2013-04-27 22:22:00,
2013-04-27 15:27:00,54.3,40.8,31.01,NW,316,0.0,0.0,60,0.00,,---,0.00,VWS V14.01,2013-04-27 22:27:00,
2013-04-27 15:32:00,54.0,40.4,31.01,NW,316,0.0,0.0,60,0.00,,---,0.00,VWS V14.01,2013-04-27 22:32:00,
2013-04-27 15:37:00,54.0,40.8,31.01,NW,316,0.0,0.0,61,0.00,,---,0.00,VWS V14.01,2013-04-27 22:37:00,
2013-04-27 15:42:00,54.0,42.9,31.01,NW,316,0.0,0.0,66,0.00,,---,0.00,VWS V14.01,2013-04-27 22:42:00,
2013-04-27 15:47:00,53.2,42.2,30.98,NW,316,0.0,0.0,66,0.00,,---,0.00,VWS V14.01,2013-04-27 22:47:00,
2013-04-27 15:52:00,53.2,42.2,30.98,NW,316,0.0,0.0,66,0.00,,---,0.00,VWS V14.01,2013-04-27 22:52:00,
2013-04-27 15:57:00,53.4,43.5,30.98,NW,316,3.1,3.1,69,0.04,,---,0.04,VWS V14.01,2013-04-27 22:57:00,
2013-04-27 16:02:00,53.2,43.3,30.98,NW,316,0.0,0.0,69,0.04,,---,0.04,VWS V14.01,2013-04-27 23:02:00,
2013-04-27 16:07:00,53.1,43.2,31.01,NW,316,0.0,0.0,69,0.04,,---,0.04,VWS V14.01,2013-04-27 23:07:00,
2013-04-27 16:12:00,53.1,43.5,31.01,NW,316,0.0,0.0,70,0.04,,---,0.04,VWS V14.01,2013-04-27 23:12:00,
2013-04-27 16:17:00,53.1,43.9,31.01,NW,316,0.0,0.0,71,0.04,,---,0.04,VWS V14.01,2013-04-27 23:17:00,
2013-04-27 16:22:00,52.2,43.4,31.01,NW,316,0.0,0.0,72,0.04,,---,0.04,VWS V14.01,2013-04-27 23:22:00,
2013-04-27 16:27:00,52.2,43.8,31.01,NW,316,0.0,0.0,73,0.04,,---,0.04,VWS V14.01,2013-04-27 23:27:00,
2013-04-27 16:32:00,52.2,43.8,31.01,NW,316,0.0,0.0,73,0.04,,---,0.04,VWS V14.01,2013-04-27 23:32:00,
2013-04-27 16:37:00,52.2,43.8,31.01,NW,316,0.0,0.0,73,0.04,,---,0.04,VWS V14.01,2013-04-27 23:37:00,
2013-04-27 16:42:00,52.0,44.0,31.01,NW,316,0.0,0.0,74,0.04,,---,0.04,VWS V14.01,2013-04-27 23:42:00,
2013-04-27 16:47:00,52.0,44.0,31.01,NW,316,0.0,0.0,74,0.04,,---,0.04,VWS V14.01,2013-04-27 23:47:00,
2013-04-27 16:52:00,52.2,43.8,31.01,NW,316,0.0,0.0,73,0.04,,---,0.04,VWS V14.01,2013-04-27 23:52:00,
2013-04-27 16:57:00,51.8,43.4,31.01,NW,316,0.0,0.0,73,0.04,,---,0.04,VWS V14.01,2013-04-27 23:57:00,
2013-04-27 17:02:00,51.6,44.0,31.01,NW,316,5.4,5.4,75,0.00,,---,0.04,VWS V14.01,2013-04-28 00:02:00,
2013-04-27 17:07:00,51.3,43.6,31.01,NW,316,0.0,0.0,75,0.00,,---,0.04,VWS V14.01,2013-04-28 00:07:00,
2013-04-27 17:12:00,51.1,44.1,31.01,NW,316,2.7,2.7,77,0.00,,---,0.04,VWS V14.01,2013-04-28 00:12:00,
2013-04-27 17:17:00,50.9,43.6,31.01,NW,316,0.0,0.0,76,0.04,,---,0.08,VWS V14.01,2013-04-28 00:17:00,
2013-04-27 17:22:00,50.7,43.8,31.01,NW,316,0.0,0.0,77,0.04,,---,0.08,VWS V14.01,2013-04-28 00:22:00,
2013-04-27 17:27:00,50.4,43.4,31.01,NW,316,0.0,0.0,77,0.04,,---,0.08,VWS V14.01,2013-04-28 00:27:00,
2013-04-27 17:32:00,50.7,44.1,31.01,NW,316,0.0,4.0,78,0.04,,---,0.08,VWS V14.01,2013-04-28 00:32:00,
2013-04-27 17:37:00,50.4,43.8,31.01,NW,316,0.0,0.0,78,0.04,,---,0.08,VWS V14.01,2013-04-28 00:37:00,
2013-04-27 17:42:00,50.5,44.3,31.01,NW,316,0.0,0.0,79,0.04,,---,0.08,VWS V14.01,2013-04-28 00:42:00,
2013-04-27 17:47:00,50.7,44.8,31.01,NW,316,0.0,3.6,80,0.04,,---,0.08,VWS V14.01,2013-04-28 00:47:00,
2013-04-27 17:52:00,50.7,44.8,31.01,NW,316,0.0,0.0,80,0.04,,---,0.08,VWS V14.01,2013-04-28 00:52:00,
2013-04-27 17:57:00,50.4,44.4,31.01,NW,316,0.0,0.0,80,0.04,,---,0.08,VWS V14.01,2013-04-28 00:57:00,
2013-04-27 18:02:00,50.5,44.9,31.01,NW,316,0.0,0.0,81,0.04,,---,0.08,VWS V14.01,2013-04-28 01:02:00,
2013-04-27 18:07:00,50.5,44.9,31.01,NW,316,3.6,3.6,81,0.04,,---,0.08,VWS V14.01,2013-04-28 01:07:00,
2013-04-27 18:12:00,50.5,44.3,31.01,NW,316,0.0,2.2,79,0.04,,---,0.08,VWS V14.01,2013-04-28 01:12:00,
2013-04-27 18:17:00,50.5,44.6,31.01,NW,316,0.0,0.0,80,0.04,,---,0.08,VWS V14.01,2013-04-28 01:17:00,
2013-04-27 18:22:00,50.7,44.8,31.01,NW,316,0.0,0.0,80,0.00,,---,0.08,VWS V14.01,2013-04-28 01:22:00,
2013-04-27 18:27:00,50.7,44.8,31.01,NW,316,0.0,0.0,80,0.00,,---,0.08,VWS V14.01,2013-04-28 01:27:00,
2013-04-27 18:32:00,50.7,44.8,31.01,NW,316,0.0,0.0,80,0.00,,---,0.08,VWS V14.01,2013-04-28 01:32:00,
2013-04-27 18:37:00,50.4,44.4,31.01,NW,316,0.0,0.0,80,0.00,,---,0.08,VWS V14.01,2013-04-28 01:37:00,
2013-04-27 18:42:00,50.4,44.4,31.01,NW,316,0.0,0.0,80,0.00,,---,0.08,VWS V14.01,2013-04-28 01:42:00,
2013-04-27 18:47:00,50.4,44.4,31.01,NW,316,0.0,0.0,80,0.00,,---,0.08,VWS V14.01,2013-04-28 01:47:00,
2013-04-27 18:52:00,50.4,44.4,31.01,NW,316,0.0,0.0,80,0.00,,---,0.08,VWS V14.01,2013-04-28 01:52:00,
2013-04-27 18:57:00,50.2,44.6,31.01,NW,316,0.0,0.0,81,0.00,,---,0.08,VWS V14.01,2013-04-28 01:57:00,
2013-04-27 19:02:00,50.2,44.6,31.01,NW,316,0.0,0.0,81,0.00,,---,0.08,VWS V14.01,2013-04-28 02:02:00,
2013-04-27 19:07:00,50.2,44.6,31.01,NW,316,0.0,0.0,81,0.00,,---,0.08,VWS V14.01,2013-04-28 02:07:00,
2013-04-27 19:12:00,50.2,44.9,31.01,NW,316,0.0,0.0,82,0.00,,---,0.08,VWS V14.01,2013-04-28 02:12:00,
2013-04-27 19:17:00,50.2,44.9,31.01,NW,316,0.0,0.0,82,0.00,,---,0.08,VWS V14.01,2013-04-28 02:17:00,
2013-04-27 19:22:00,50.0,45.0,31.01,NW,316,0.0,0.0,83,0.00,,---,0.08,VWS V14.01,2013-04-28 02:22:00,
2013-04-27 19:27:00,49.8,44.9,31.01,NW,316,0.0,0.0,83,0.00,,---,0.08,VWS V14.01,2013-04-28 02:27:00,
2013-04-27 19:32:00,50.0,45.0,31.01,NW,316,0.0,0.0,83,0.00,,---,0.08,VWS V14.01,2013-04-28 02:32:00,
2013-04-27 19:37:00,50.0,45.0,31.01,NW,316,0.0,0.0,83,0.00,,---,0.08,VWS V14.01,2013-04-28 02:37:00,
2013-04-27 19:42:00,50.0,45.4,31.01,NW,316,0.0,0.0,84,0.00,,---,0.08,VWS V14.01,2013-04-28 02:42:00,
2013-04-27 19:47:00,49.3,45.3,31.01,NW,316,0.0,0.0,86,0.00,,---,0.08,VWS V14.01,2013-04-28 02:47:00,
2013-04-27 19:52:00,49.1,45.1,31.01,NW,316,0.0,0.0,86,0.00,,---,0.08,VWS V14.01,2013-04-28 02:52:00,
2013-04-27 19:57:00,49.1,45.1,31.01,NW,316,0.0,0.0,86,0.00,,---,0.08,VWS V14.01,2013-04-28 02:57:00,
2013-04-27 20:02:00,48.9,45.2,31.01,NW,316,0.0,0.0,87,0.04,,---,0.12,VWS V14.01,2013-04-28 03:02:00,
2013-04-27 20:07:00,48.9,45.2,31.01,NW,316,0.0,0.0,87,0.04,,---,0.12,VWS V14.01,2013-04-28 03:07:00,
2013-04-27 20:12:00,49.1,45.7,31.01,NW,316,0.0,0.0,88,0.04,,---,0.12,VWS V14.01,2013-04-28 03:12:00,
2013-04-27 20:17:00,48.9,45.8,31.01,NW,316,0.0,0.0,89,0.04,,---,0.12,VWS V14.01,2013-04-28 03:17:00,
2013-04-27 20:22:00,48.7,45.7,31.01,NW,316,0.0,0.0,89,0.04,,---,0.12,VWS V14.01,2013-04-28 03:22:00,
2013-04-27 20:27:00,48.7,45.9,31.01,NW,316,0.0,0.0,90,0.04,,---,0.12,VWS V14.01,2013-04-28 03:27:00,
2013-04-27 20:32:00,48.6,45.8,31.01,NW,316,0.0,0.0,90,0.04,,---,0.12,VWS V14.01,2013-04-28 03:32:00,
2013-04-27 20:37:00,48.6,45.5,31.01,NW,316,0.0,0.0,89,0.04,,---,0.12,VWS V14.01,2013-04-28 03:37:00,
2013-04-27 20:42:00,48.6,45.2,31.01,NW,316,0.0,0.0,88,0.04,,---,0.12,VWS V14.01,2013-04-28 03:42:00,
2013-04-27 20:47:00,48.7,45.3,31.01,NW,316,0.0,0.0,88,0.04,,---,0.12,VWS V14.01,2013-04-28 03:47:00,
2013-04-27 20:52:00,48.9,45.2,31.01,NW,316,0.0,0.0,87,0.04,,---,0.12,VWS V14.01,2013-04-28 03:52:00,
2013-04-27 20:57:00,48.9,45.2,31.01,NW,316,0.0,0.0,87,0.04,,---,0.12,VWS V14.01,2013-04-28 03:57:00,
2013-04-27 21:01:00,49.1,45.1,31.01,NW,316,0.0,0.0,86,0.04,,---,0.12,VWS V14.01,2013-04-28 04:01:00,
2013-04-27 21:06:00,49.1,45.1,31.01,NW,316,0.0,0.0,86,0.04,,---,0.12,VWS V14.01,2013-04-28 04:06:00,
2013-04-27 21:11:00,48.9,44.9,31.01,NW,316,0.0,0.0,86,0.00,,---,0.12,VWS V14.01,2013-04-28 04:11:00,
2013-04-27 21:16:00,49.1,45.1,31.01,NW,316,0.0,0.0,86,0.00,,---,0.12,VWS V14.01,2013-04-28 04:16:00,
2013-04-27 21:21:00,48.9,44.9,31.01,NW,316,0.0,0.0,86,0.00,,---,0.12,VWS V14.01,2013-04-28 04:21:00,
2013-04-27 21:26:00,48.9,44.9,31.01,NW,316,0.0,0.0,86,0.00,,---,0.12,VWS V14.01,2013-04-28 04:26:00,
2013-04-27 21:31:00,48.9,44.9,31.01,NW,316,0.0,0.0,86,0.00,,---,0.12,VWS V14.01,2013-04-28 04:31:00,
2013-04-27 21:36:00,48.9,44.9,31.01,NW,316,0.0,0.0,86,0.00,,---,0.12,VWS V14.01,2013-04-28 04:36:00,
2013-04-27 21:41:00,48.9,44.9,31.01,NW,316,0.0,0.0,86,0.00,,---,0.12,VWS V14.01,2013-04-28 04:41:00,
2013-04-27 21:46:00,48.7,44.8,31.01,NW,316,0.0,0.0,86,0.00,,---,0.12,VWS V14.01,2013-04-28 04:46:00,
2013-04-27 21:51:00,48.7,44.8,31.01,NW,316,0.0,0.0,86,0.00,,---,0.12,VWS V14.01,2013-04-28 04:51:00,
2013-04-27 21:56:00,48.7,44.8,31.01,NW,316,0.0,0.0,86,0.00,,---,0.12,VWS V14.01,2013-04-28 04:56:00,
2013-04-27 22:01:00,48.7,44.8,31.01,NW,316,0.0,0.0,86,0.00,,---,0.12,VWS V14.01,2013-04-28 05:01:00,
2013-04-27 22:06:00,48.7,44.8,31.01,NW,316,0.0,0.0,86,0.00,,---,0.12,VWS V14.01,2013-04-28 05:06:00,
2013-04-27 22:11:00,48.7,44.8,31.01,NW,316,0.0,0.0,86,0.00,,---,0.12,VWS V14.01,2013-04-28 05:11:00,
2013-04-27 22:16:00,48.7,44.8,31.01,NW,316,0.0,0.0,86,0.00,,---,0.12,VWS V14.01,2013-04-28 05:16:00,
2013-04-27 22:21:00,48.7,44.8,31.01,NW,316,0.0,0.0,86,0.00,,---,0.12,VWS V14.01,2013-04-28 05:21:00,
2013-04-27 22:26:00,48.7,44.8,31.01,NW,316,0.0,0.0,86,0.00,,---,0.12,VWS V14.01,2013-04-28 05:26:00,
2013-04-27 22:31:00,48.6,44.6,31.01,NW,316,0.0,0.0,86,0.00,,---,0.12,VWS V14.01,2013-04-28 05:31:00,
2013-04-27 22:36:00,48.7,44.8,31.01,NW,316,0.0,0.0,86,0.00,,---,0.12,VWS V14.01,2013-04-28 05:36:00,
2013-04-27 22:41:00,48.6,44.6,31.01,NW,316,0.0,0.0,86,0.00,,---,0.12,VWS V14.01,2013-04-28 05:41:00,
2013-04-27 22:46:00,48.6,44.9,31.01,NW,316,0.0,0.0,87,0.00,,---,0.12,VWS V14.01,2013-04-28 05:46:00,
2013-04-27 22:51:00,48.6,44.9,31.01,NW,316,0.0,0.0,87,0.00,,---,0.12,VWS V14.01,2013-04-28 05:51:00,
2013-04-27 22:56:00,48.4,44.7,31.01,NW,316,0.0,0.0,87,0.00,,---,0.12,VWS V14.01,2013-04-28 05:56:00,
2013-04-27 23:01:00,48.4,44.7,31.01,NW,316,0.0,0.0,87,0.00,,---,0.12,VWS V14.01,2013-04-28 06:01:00,
2013-04-27 23:06:00,48.6,45.2,31.01,NW,316,0.0,0.0,88,0.00,,---,0.12,VWS V14.01,2013-04-28 06:06:00,
2013-04-27 23:11:00,48.6,44.9,31.01,NW,316,0.0,0.0,87,0.00,,---,0.12,VWS V14.01,2013-04-28 06:11:00,
2013-04-27 23:16:00,48.4,45.0,31.01,NW,316,0.0,0.0,88,0.00,,---,0.12,VWS V14.01,2013-04-28 06:16:00,
2013-04-27 23:21:00,48.2,44.8,31.01,NW,316,0.0,0.0,88,0.00,,---,0.12,VWS V14.01,2013-04-28 06:21:00,
2013-04-27 23:26:00,48.2,44.8,31.01,NW,316,0.0,0.0,88,0.00,,---,0.12,VWS V14.01,2013-04-28 06:26:00,
2013-04-27 23:31:00,48.2,44.8,31.01,NW,316,0.0,0.0,88,0.00,,---,0.12,VWS V14.01,2013-04-28 06:31:00,
2013-04-27 23:36:00,48.2,45.1,31.01,NW,316,0.0,0.0,89,0.00,,---,0.12,VWS V14.01,2013-04-28 06:36:00,
2013-04-27 23:41:00,48.0,45.2,31.01,NW,316,0.0,0.0,90,0.00,,---,0.12,VWS V14.01,2013-04-28 06:41:00,
2013-04-27 23:46:00,48.0,45.2,31.01,NW,316,0.0,0.0,90,0.00,,---,0.12,VWS V14.01,2013-04-28 06:46:00,
2013-04-27 23:51:00,48.2,45.4,31.01,NW,316,0.0,0.0,90,0.00,,---,0.12,VWS V14.01,2013-04-28 06:51:00,
2013-04-27 23:56:00,48.0,45.2,31.01,NW,316,0.0,0.0,90,0.00,,---,0.12,VWS V14.01,2013-04-28 06:56:00,